sensor_id;sensor_type;location;lat;lon;timestamp;temperature;humidity
43043;DHT22;28667;50.758;6.096;2024-02-23T00:52:18;5.00;99.90
43043;DHT22;28667;50.758;6.096;2024-02-23T00:54:43;5.00;99.90
43043;DHT22;28667;50.758;6.096;2024-02-23T00:57:09;4.90;99.90
43043;DHT22;28667;50.758;6.096;2024-02-23T00:59:35;4.90;99.90
43043;DHT22;28667;50.758;6.096;2024-02-23T01:02:00;4.90;99.90
43043;DHT22;28667;50.758;6.096;2024-02-23T01:04:26;4.80;99.90
43043;DHT22;28667;50.758;6.096;2024-02-23T01:06:52;4.80;99.90
43043;DHT22;28667;50.758;6.096;2024-02-23T01:09:18;4.80;99.90
43043;DHT22;28667;50.758;6.096;2024-02-23T01:11:49;4.80;99.90
43043;DHT22;28667;50.758;6.096;2024-02-23T01:14:15;4.70;99.90
43043;DHT22;28667;50.758;6.096;2024-02-23T01:16:41;4.70;99.90
43043;DHT22;28667;50.758;6.096;2024-02-23T01:19:06;4.70;99.90
43043;DHT22;28667;50.758;6.096;2024-02-23T01:21:32;4.70;99.90
43043;DHT22;28667;50.758;6.096;2024-02-23T01:23:58;4.70;99.90
43043;DHT22;28667;50.758;6.096;2024-02-23T01:26:26;4.70;99.90
43043;DHT22;28667;50.758;6.096;2024-02-23T01:28:53;4.70;99.90
43043;DHT22;28667;50.758;6.096;2024-02-23T01:31:19;4.70;99.90
43043;DHT22;28667;50.758;6.096;2024-02-23T01:33:44;4.70;99.90
43043;DHT22;28667;50.758;6.096;2024-02-23T01:36:10;4.70;99.90
43043;DHT22;28667;50.758;6.096;2024-02-23T01:38:36;4.70;99.90
43043;DHT22;28667;50.758;6.096;2024-02-23T01:41:01;4.70;99.90
43043;DHT22;28667;50.758;6.096;2024-02-23T01:43:27;4.70;99.90
43043;DHT22;28667;50.758;6.096;2024-02-23T01:45:54;4.70;99.90
43043;DHT22;28667;50.758;6.096;2024-02-23T01:48:20;4.70;99.90
43043;DHT22;28667;50.758;6.096;2024-02-23T01:50:46;4.70;99.90
43043;DHT22;28667;50.758;6.096;2024-02-23T01:53:12;4.70;99.90
43043;DHT22;28667;50.758;6.096;2024-02-23T01:55:41;4.70;99.90
43043;DHT22;28667;50.758;6.096;2024-02-23T01:58:10;4.70;99.90
43043;DHT22;28667;50.758;6.096;2024-02-23T02:00:35;4.70;99.90
43043;DHT22;28667;50.758;6.096;2024-02-23T02:03:03;4.70;99.90
43043;DHT22;28667;50.758;6.096;2024-02-23T02:05:28;4.70;99.90
43043;DHT22;28667;50.758;6.096;2024-02-23T02:07:55;4.70;99.90
43043;DHT22;28667;50.758;6.096;2024-02-23T02:10:25;4.60;99.90
43043;DHT22;28667;50.758;6.096;2024-02-23T02:12:51;4.70;99.90
43043;DHT22;28667;50.758;6.096;2024-02-23T02:15:17;4.60;99.90
43043;DHT22;28667;50.758;6.096;2024-02-23T02:17:43;4.70;99.90
43043;DHT22;28667;50.758;6.096;2024-02-23T02:20:12;4.70;99.90
43043;DHT22;28667;50.758;6.096;2024-02-23T02:22:39;4.60;99.90
43043;DHT22;28667;50.758;6.096;2024-02-23T02:25:05;4.60;99.90
43043;DHT22;28667;50.758;6.096;2024-02-23T02:27:32;4.70;99.90
43043;DHT22;28667;50.758;6.096;2024-02-23T02:29:57;4.70;99.90
43043;DHT22;28667;50.758;6.096;2024-02-23T02:32:23;4.60;99.90
43043;DHT22;28667;50.758;6.096;2024-02-23T02:34:49;4.60;99.90
43043;DHT22;28667;50.758;6.096;2024-02-23T02:37:15;4.60;99.90
43043;DHT22;28667;50.758;6.096;2024-02-23T02:39:41;4.60;99.90
43043;DHT22;28667;50.758;6.096;2024-02-23T02:42:07;4.60;99.90
43043;DHT22;28667;50.758;6.096;2024-02-23T02:44:32;4.60;99.90
43043;DHT22;28667;50.758;6.096;2024-02-23T02:46:58;4.60;99.90
43043;DHT22;28667;50.758;6.096;2024-02-23T02:49:24;4.60;99.90
43043;DHT22;28667;50.758;6.096;2024-02-23T02:51:50;4.60;99.90
43043;DHT22;28667;50.758;6.096;2024-02-23T02:54:16;4.60;99.90
43043;DHT22;28667;50.758;6.096;2024-02-23T02:56:43;4.70;99.90
43043;DHT22;28667;50.758;6.096;2024-02-23T02:59:09;4.70;99.90
43043;DHT22;28667;50.758;6.096;2024-02-23T03:01:35;4.70;99.90
43043;DHT22;28667;50.758;6.096;2024-02-23T03:04:01;4.70;99.90
43043;DHT22;28667;50.758;6.096;2024-02-23T03:06:27;4.70;99.90
43043;DHT22;28667;50.758;6.096;2024-02-23T03:08:52;4.80;99.90
43043;DHT22;28667;50.758;6.096;2024-02-23T03:11:18;4.80;99.90
43043;DHT22;28667;50.758;6.096;2024-02-23T03:13:44;4.80;99.90
43043;DHT22;28667;50.758;6.096;2024-02-23T03:16:16;4.80;99.90
43043;DHT22;28667;50.758;6.096;2024-02-23T03:18:45;4.80;99.90
43043;DHT22;28667;50.758;6.096;2024-02-23T03:21:11;4.80;99.90
43043;DHT22;28667;50.758;6.096;2024-02-23T03:23:37;4.80;99.90
43043;DHT22;28667;50.758;6.096;2024-02-23T03:26:03;4.80;99.90
43043;DHT22;28667;50.758;6.096;2024-02-23T03:28:29;4.80;99.90
43043;DHT22;28667;50.758;6.096;2024-02-23T03:30:54;4.80;99.90
43043;DHT22;28667;50.758;6.096;2024-02-23T03:33:20;4.80;99.90
43043;DHT22;28667;50.758;6.096;2024-02-23T03:35:46;4.80;99.90
43043;DHT22;28667;50.758;6.096;2024-02-23T03:38:12;4.80;99.90
43043;DHT22;28667;50.758;6.096;2024-02-23T03:40:37;4.80;99.90
43043;DHT22;28667;50.758;6.096;2024-02-23T03:43:03;4.80;99.90
43043;DHT22;28667;50.758;6.096;2024-02-23T03:45:29;4.90;99.90
43043;DHT22;28667;50.758;6.096;2024-02-23T03:47:55;4.90;99.90
43043;DHT22;28667;50.758;6.096;2024-02-23T03:50:20;4.80;99.90
43043;DHT22;28667;50.758;6.096;2024-02-23T03:52:46;4.80;99.90
43043;DHT22;28667;50.758;6.096;2024-02-23T03:55:12;4.80;99.90
43043;DHT22;28667;50.758;6.096;2024-02-23T03:57:38;4.80;99.90
43043;DHT22;28667;50.758;6.096;2024-02-23T04:00:04;4.80;99.90
43043;DHT22;28667;50.758;6.096;2024-02-23T04:02:38;4.80;99.90
43043;DHT22;28667;50.758;6.096;2024-02-23T04:05:06;4.80;99.90
43043;DHT22;28667;50.758;6.096;2024-02-23T04:07:32;4.80;99.90
43043;DHT22;28667;50.758;6.096;2024-02-23T04:09:57;4.90;99.90
43043;DHT22;28667;50.758;6.096;2024-02-23T04:12:24;4.90;99.90
43043;DHT22;28667;50.758;6.096;2024-02-23T04:14:49;4.90;99.90
43043;DHT22;28667;50.758;6.096;2024-02-23T04:17:15;4.90;99.90
43043;DHT22;28667;50.758;6.096;2024-02-23T04:19:42;4.90;99.90
43043;DHT22;28667;50.758;6.096;2024-02-23T04:22:09;4.90;99.90
43043;DHT22;28667;50.758;6.096;2024-02-23T04:24:38;4.90;99.90
43043;DHT22;28667;50.758;6.096;2024-02-23T04:27:05;4.90;99.90
43043;DHT22;28667;50.758;6.096;2024-02-23T04:29:31;4.80;99.90
43043;DHT22;28667;50.758;6.096;2024-02-23T04:31:59;4.90;99.90
43043;DHT22;28667;50.758;6.096;2024-02-23T04:34:24;4.90;99.90
43043;DHT22;28667;50.758;6.096;2024-02-23T04:36:53;4.90;99.90
43043;DHT22;28667;50.758;6.096;2024-02-23T04:39:19;4.80;99.90
43043;DHT22;28667;50.758;6.096;2024-02-23T04:41:45;4.80;99.90
43043;DHT22;28667;50.758;6.096;2024-02-23T04:44:11;4.80;99.90
43043;DHT22;28667;50.758;6.096;2024-02-23T04:46:36;4.80;99.90
43043;DHT22;28667;50.758;6.096;2024-02-23T04:49:02;4.80;99.90
43043;DHT22;28667;50.758;6.096;2024-02-23T04:51:28;4.80;99.90
43043;DHT22;28667;50.758;6.096;2024-02-23T04:53:54;4.90;99.90
43043;DHT22;28667;50.758;6.096;2024-02-23T04:56:19;4.90;99.90
43043;DHT22;28667;50.758;6.096;2024-02-23T04:58:46;4.90;99.90
43043;DHT22;28667;50.758;6.096;2024-02-23T05:01:12;4.90;99.90
43043;DHT22;28667;50.758;6.096;2024-02-23T05:03:38;4.80;99.90
43043;DHT22;28667;50.758;6.096;2024-02-23T05:06:04;4.80;99.90
43043;DHT22;28667;50.758;6.096;2024-02-23T05:08:31;4.90;99.90
43043;DHT22;28667;50.758;6.096;2024-02-23T05:10:57;4.90;99.90
43043;DHT22;28667;50.758;6.096;2024-02-23T05:13:26;4.90;99.90
43043;DHT22;28667;50.758;6.096;2024-02-23T05:15:55;4.90;99.90
43043;DHT22;28667;50.758;6.096;2024-02-23T05:18:21;4.90;99.90
43043;DHT22;28667;50.758;6.096;2024-02-23T05:20:46;4.90;99.90
43043;DHT22;28667;50.758;6.096;2024-02-23T05:23:12;4.90;99.90
43043;DHT22;28667;50.758;6.096;2024-02-23T05:25:41;4.90;99.90
43043;DHT22;28667;50.758;6.096;2024-02-23T05:28:07;4.90;99.90
43043;DHT22;28667;50.758;6.096;2024-02-23T05:30:33;4.90;99.90
43043;DHT22;28667;50.758;6.096;2024-02-23T05:32:58;4.90;99.90
43043;DHT22;28667;50.758;6.096;2024-02-23T05:35:25;4.90;99.90
43043;DHT22;28667;50.758;6.096;2024-02-23T05:37:53;4.90;99.90
43043;DHT22;28667;50.758;6.096;2024-02-23T05:40:19;4.80;99.90
43043;DHT22;28667;50.758;6.096;2024-02-23T05:42:44;4.80;99.90
43043;DHT22;28667;50.758;6.096;2024-02-23T05:45:10;4.80;99.90
43043;DHT22;28667;50.758;6.096;2024-02-23T05:47:37;4.80;99.90
43043;DHT22;28667;50.758;6.096;2024-02-23T05:50:04;4.80;99.90
43043;DHT22;28667;50.758;6.096;2024-02-23T05:52:33;4.70;99.90
43043;DHT22;28667;50.758;6.096;2024-02-23T05:55:00;4.70;99.90
43043;DHT22;28667;50.758;6.096;2024-02-23T05:57:26;4.60;99.90
43043;DHT22;28667;50.758;6.096;2024-02-23T05:59:53;4.60;99.90
43043;DHT22;28667;50.758;6.096;2024-02-23T06:02:18;4.60;99.90
43043;DHT22;28667;50.758;6.096;2024-02-23T06:04:44;4.60;99.90
43043;DHT22;28667;50.758;6.096;2024-02-23T06:07:11;4.70;99.90
43043;DHT22;28667;50.758;6.096;2024-02-23T06:09:36;4.60;99.90
43043;DHT22;28667;50.758;6.096;2024-02-23T06:12:02;4.60;99.90
43043;DHT22;28667;50.758;6.096;2024-02-23T06:14:28;4.50;99.90
43043;DHT22;28667;50.758;6.096;2024-02-23T06:16:54;4.50;99.90
43043;DHT22;28667;50.758;6.096;2024-02-23T06:19:19;4.50;99.90
43043;DHT22;28667;50.758;6.096;2024-02-23T06:21:48;4.50;99.90
43043;DHT22;28667;50.758;6.096;2024-02-23T06:24:15;4.50;99.90
43043;DHT22;28667;50.758;6.096;2024-02-23T06:26:41;4.50;99.90
43043;DHT22;28667;50.758;6.096;2024-02-23T06:29:06;4.50;99.90
43043;DHT22;28667;50.758;6.096;2024-02-23T06:31:34;4.50;99.90
43043;DHT22;28667;50.758;6.096;2024-02-23T06:34:00;4.50;99.90
43043;DHT22;28667;50.758;6.096;2024-02-23T06:36:25;4.50;99.90
43043;DHT22;28667;50.758;6.096;2024-02-23T06:38:51;4.50;99.90
43043;DHT22;28667;50.758;6.096;2024-02-23T06:41:17;4.50;99.90
43043;DHT22;28667;50.758;6.096;2024-02-23T06:43:43;4.50;99.90
43043;DHT22;28667;50.758;6.096;2024-02-23T06:46:09;4.40;99.90
43043;DHT22;28667;50.758;6.096;2024-02-23T06:48:35;4.40;99.90
43043;DHT22;28667;50.758;6.096;2024-02-23T06:51:04;4.50;99.90
43043;DHT22;28667;50.758;6.096;2024-02-23T06:53:30;4.50;99.90
43043;DHT22;28667;50.758;6.096;2024-02-23T06:55:56;4.50;99.90
43043;DHT22;28667;50.758;6.096;2024-02-23T06:58:22;4.50;99.90
43043;DHT22;28667;50.758;6.096;2024-02-23T07:00:48;4.60;99.90
43043;DHT22;28667;50.758;6.096;2024-02-23T07:03:14;4.50;99.90
43043;DHT22;28667;50.758;6.096;2024-02-23T07:05:40;4.50;99.90
43043;DHT22;28667;50.758;6.096;2024-02-23T07:08:08;4.60;99.90
43043;DHT22;28667;50.758;6.096;2024-02-23T07:10:33;4.50;99.90
43043;DHT22;28667;50.758;6.096;2024-02-23T07:12:59;4.60;99.90
43043;DHT22;28667;50.758;6.096;2024-02-23T07:15:25;4.50;99.90
43043;DHT22;28667;50.758;6.096;2024-02-23T07:17:55;4.60;99.90
43043;DHT22;28667;50.758;6.096;2024-02-23T07:20:21;4.60;99.90
43043;DHT22;28667;50.758;6.096;2024-02-23T07:22:47;4.60;99.90
43043;DHT22;28667;50.758;6.096;2024-02-23T07:25:17;4.60;99.90
43043;DHT22;28667;50.758;6.096;2024-02-23T07:27:44;4.60;99.90
43043;DHT22;28667;50.758;6.096;2024-02-23T07:30:11;4.70;99.90
43043;DHT22;28667;50.758;6.096;2024-02-23T07:32:37;4.70;99.90
43043;DHT22;28667;50.758;6.096;2024-02-23T07:35:03;4.60;99.90
43043;DHT22;28667;50.758;6.096;2024-02-23T07:37:29;4.70;99.90
43043;DHT22;28667;50.758;6.096;2024-02-23T07:39:55;4.70;99.90
43043;DHT22;28667;50.758;6.096;2024-02-23T07:42:21;4.70;99.90
43043;DHT22;28667;50.758;6.096;2024-02-23T07:44:47;4.80;99.90
43043;DHT22;28667;50.758;6.096;2024-02-23T07:47:12;4.80;99.90
43043;DHT22;28667;50.758;6.096;2024-02-23T07:49:38;4.90;99.90
43043;DHT22;28667;50.758;6.096;2024-02-23T07:52:06;5.00;99.90
43043;DHT22;28667;50.758;6.096;2024-02-23T07:54:32;5.00;99.90
43043;DHT22;28667;50.758;6.096;2024-02-23T07:56:58;5.10;99.90
43043;DHT22;28667;50.758;6.096;2024-02-23T07:59:24;5.10;99.90
43043;DHT22;28667;50.758;6.096;2024-02-23T08:01:50;5.10;99.90
43043;DHT22;28667;50.758;6.096;2024-02-23T08:04:16;5.20;99.90
43043;DHT22;28667;50.758;6.096;2024-02-23T08:06:42;5.30;99.90
43043;DHT22;28667;50.758;6.096;2024-02-23T08:09:10;5.30;99.90
43043;DHT22;28667;50.758;6.096;2024-02-23T08:11:36;5.30;99.90
43043;DHT22;28667;50.758;6.096;2024-02-23T08:14:02;5.30;99.90
43043;DHT22;28667;50.758;6.096;2024-02-23T08:16:28;5.30;99.90
43043;DHT22;28667;50.758;6.096;2024-02-23T08:18:54;5.40;99.90
43043;DHT22;28667;50.758;6.096;2024-02-23T08:21:20;5.40;99.90
43043;DHT22;28667;50.758;6.096;2024-02-23T08:23:46;5.40;99.90
43043;DHT22;28667;50.758;6.096;2024-02-23T08:26:12;5.50;99.90
43043;DHT22;28667;50.758;6.096;2024-02-23T08:28:38;5.50;99.90
43043;DHT22;28667;50.758;6.096;2024-02-23T08:31:03;5.60;99.90
43043;DHT22;28667;50.758;6.096;2024-02-23T08:33:30;5.70;99.90
43043;DHT22;28667;50.758;6.096;2024-02-23T08:35:56;5.90;99.90
43043;DHT22;28667;50.758;6.096;2024-02-23T08:38:21;6.00;99.90
43043;DHT22;28667;50.758;6.096;2024-02-23T08:40:47;6.00;99.90
43043;DHT22;28667;50.758;6.096;2024-02-23T08:43:13;6.10;99.90
43043;DHT22;28667;50.758;6.096;2024-02-23T08:45:39;6.20;99.90
43043;DHT22;28667;50.758;6.096;2024-02-23T08:48:05;6.20;99.90
43043;DHT22;28667;50.758;6.096;2024-02-23T08:50:32;6.30;99.90
43043;DHT22;28667;50.758;6.096;2024-02-23T08:52:58;6.40;99.90
43043;DHT22;28667;50.758;6.096;2024-02-23T08:55:23;6.40;99.90
43043;DHT22;28667;50.758;6.096;2024-02-23T08:57:50;6.50;99.90
43043;DHT22;28667;50.758;6.096;2024-02-23T09:00:16;6.60;99.90
43043;DHT22;28667;50.758;6.096;2024-02-23T09:02:41;6.70;99.90
43043;DHT22;28667;50.758;6.096;2024-02-23T09:05:11;7.00;99.90
43043;DHT22;28667;50.758;6.096;2024-02-23T09:07:36;7.40;99.90
43043;DHT22;28667;50.758;6.096;2024-02-23T09:10:02;7.60;99.90
43043;DHT22;28667;50.758;6.096;2024-02-23T09:12:30;7.70;99.90
43043;DHT22;28667;50.758;6.096;2024-02-23T09:14:56;7.90;99.90
43043;DHT22;28667;50.758;6.096;2024-02-23T09:17:22;8.00;99.90
43043;DHT22;28667;50.758;6.096;2024-02-23T09:19:48;8.10;99.90
43043;DHT22;28667;50.758;6.096;2024-02-23T09:22:14;8.20;99.90
43043;DHT22;28667;50.758;6.096;2024-02-23T09:24:41;8.30;99.90
43043;DHT22;28667;50.758;6.096;2024-02-23T09:27:07;8.40;99.90
43043;DHT22;28667;50.758;6.096;2024-02-23T09:29:34;8.40;99.90
43043;DHT22;28667;50.758;6.096;2024-02-23T09:32:00;8.50;99.90
43043;DHT22;28667;50.758;6.096;2024-02-23T09:34:26;8.60;99.90
43043;DHT22;28667;50.758;6.096;2024-02-23T09:36:52;8.70;99.90
43043;DHT22;28667;50.758;6.096;2024-02-23T09:39:18;8.80;99.90
43043;DHT22;28667;50.758;6.096;2024-02-23T09:41:45;8.90;99.90
43043;DHT22;28667;50.758;6.096;2024-02-23T09:44:14;8.90;99.90
43043;DHT22;28667;50.758;6.096;2024-02-23T09:46:43;8.80;99.90
43043;DHT22;28667;50.758;6.096;2024-02-23T09:49:11;8.60;99.90
43043;DHT22;28667;50.758;6.096;2024-02-23T09:51:39;8.50;99.90
43043;DHT22;28667;50.758;6.096;2024-02-23T09:54:05;8.30;99.90
43043;DHT22;28667;50.758;6.096;2024-02-23T09:56:31;8.20;99.90
43043;DHT22;28667;50.758;6.096;2024-02-23T09:59:03;8.00;99.90
43043;DHT22;28667;50.758;6.096;2024-02-23T10:01:32;7.90;99.90
43043;DHT22;28667;50.758;6.096;2024-02-23T10:04:01;7.80;99.90
43043;DHT22;28667;50.758;6.096;2024-02-23T10:06:30;7.70;99.90
43043;DHT22;28667;50.758;6.096;2024-02-23T10:08:56;7.70;99.90
43043;DHT22;28667;50.758;6.096;2024-02-23T10:11:22;7.80;99.90
43043;DHT22;28667;50.758;6.096;2024-02-23T10:13:48;7.80;99.90
43043;DHT22;28667;50.758;6.096;2024-02-23T10:16:20;7.90;99.90
43043;DHT22;28667;50.758;6.096;2024-02-23T10:18:47;7.80;99.90
43043;DHT22;28667;50.758;6.096;2024-02-23T10:21:16;7.70;99.90
43043;DHT22;28667;50.758;6.096;2024-02-23T10:23:43;7.70;99.90
43043;DHT22;28667;50.758;6.096;2024-02-23T10:26:09;7.60;99.90
43043;DHT22;28667;50.758;6.096;2024-02-23T10:28:37;7.60;99.90
43043;DHT22;28667;50.758;6.096;2024-02-23T10:31:07;7.60;99.90
43043;DHT22;28667;50.758;6.096;2024-02-23T10:33:34;7.60;99.90
43043;DHT22;28667;50.758;6.096;2024-02-23T10:36:00;7.80;99.90
43043;DHT22;28667;50.758;6.096;2024-02-23T10:38:27;7.80;99.90
43043;DHT22;28667;50.758;6.096;2024-02-23T10:40:55;7.90;99.90
43043;DHT22;28667;50.758;6.096;2024-02-23T10:43:33;7.90;99.90
43043;DHT22;28667;50.758;6.096;2024-02-23T10:46:01;7.90;99.90
43043;DHT22;28667;50.758;6.096;2024-02-23T10:48:31;7.90;99.90
43043;DHT22;28667;50.758;6.096;2024-02-23T10:50:57;8.00;99.90
43043;DHT22;28667;50.758;6.096;2024-02-23T10:53:24;8.00;99.90
43043;DHT22;28667;50.758;6.096;2024-02-23T10:55:59;8.10;99.90
43043;DHT22;28667;50.758;6.096;2024-02-23T10:58:26;8.10;99.90
43043;DHT22;28667;50.758;6.096;2024-02-23T11:00:53;8.20;99.90
43043;DHT22;28667;50.758;6.096;2024-02-23T11:03:25;8.20;99.90
43043;DHT22;28667;50.758;6.096;2024-02-23T11:05:50;8.20;99.90
43043;DHT22;28667;50.758;6.096;2024-02-23T11:08:18;8.20;99.90
43043;DHT22;28667;50.758;6.096;2024-02-23T11:10:51;8.20;99.90
43043;DHT22;28667;50.758;6.096;2024-02-23T11:13:17;8.10;99.90
43043;DHT22;28667;50.758;6.096;2024-02-23T11:15:43;8.10;99.90
43043;DHT22;28667;50.758;6.096;2024-02-23T11:18:28;8.10;99.90
43043;DHT22;28667;50.758;6.096;2024-02-23T11:20:56;8.00;99.90
43043;DHT22;28667;50.758;6.096;2024-02-23T11:23:24;8.00;99.90
43043;DHT22;28667;50.758;6.096;2024-02-23T11:26:05;8.00;99.90
43043;DHT22;28667;50.758;6.096;2024-02-23T11:28:32;7.90;99.90
43043;DHT22;28667;50.758;6.096;2024-02-23T11:30:58;7.80;99.90
43043;DHT22;28667;50.758;6.096;2024-02-23T11:33:28;7.90;99.90
43043;DHT22;28667;50.758;6.096;2024-02-23T11:36:08;7.90;99.90
43043;DHT22;28667;50.758;6.096;2024-02-23T11:38:34;7.80;99.90
43043;DHT22;28667;50.758;6.096;2024-02-23T11:41:01;7.90;99.90
43043;DHT22;28667;50.758;6.096;2024-02-23T11:43:27;7.90;99.90
43043;DHT22;28667;50.758;6.096;2024-02-23T11:45:53;8.00;99.90
43043;DHT22;28667;50.758;6.096;2024-02-23T11:48:19;8.00;99.90
43043;DHT22;28667;50.758;6.096;2024-02-23T11:50:48;8.00;99.90
43043;DHT22;28667;50.758;6.096;2024-02-23T11:53:14;8.00;99.90
43043;DHT22;28667;50.758;6.096;2024-02-23T11:55:40;8.00;99.90
43043;DHT22;28667;50.758;6.096;2024-02-23T11:58:06;8.00;99.90
43043;DHT22;28667;50.758;6.096;2024-02-23T12:00:32;8.00;99.90
43043;DHT22;28667;50.758;6.096;2024-02-23T12:03:00;8.10;99.90
43043;DHT22;28667;50.758;6.096;2024-02-23T12:05:26;8.10;99.90
43043;DHT22;28667;50.758;6.096;2024-02-23T12:07:52;8.10;99.90
43043;DHT22;28667;50.758;6.096;2024-02-23T12:10:19;8.10;99.90
43043;DHT22;28667;50.758;6.096;2024-02-23T12:12:44;8.30;99.90
43043;DHT22;28667;50.758;6.096;2024-02-23T12:15:11;8.40;99.90
43043;DHT22;28667;50.758;6.096;2024-02-23T12:17:36;8.60;99.90
43043;DHT22;28667;50.758;6.096;2024-02-23T12:20:03;8.80;99.90
43043;DHT22;28667;50.758;6.096;2024-02-23T12:22:29;9.00;99.90
43043;DHT22;28667;50.758;6.096;2024-02-23T12:24:59;9.00;99.90
43043;DHT22;28667;50.758;6.096;2024-02-23T12:27:26;9.00;99.90
43043;DHT22;28667;50.758;6.096;2024-02-23T12:29:53;9.00;99.90
43043;DHT22;28667;50.758;6.096;2024-02-23T12:32:20;8.90;99.90
43043;DHT22;28667;50.758;6.096;2024-02-23T12:34:47;8.90;99.90
43043;DHT22;28667;50.758;6.096;2024-02-23T12:37:16;8.90;99.90
43043;DHT22;28667;50.758;6.096;2024-02-23T12:39:43;8.90;99.90
43043;DHT22;28667;50.758;6.096;2024-02-23T12:42:09;9.10;99.90
43043;DHT22;28667;50.758;6.096;2024-02-23T12:44:35;9.30;99.90
43043;DHT22;28667;50.758;6.096;2024-02-23T12:47:00;9.50;99.90
43043;DHT22;28667;50.758;6.096;2024-02-23T12:49:26;9.60;99.90
43043;DHT22;28667;50.758;6.096;2024-02-23T12:51:52;9.80;99.90
43043;DHT22;28667;50.758;6.096;2024-02-23T12:54:18;9.90;99.90
43043;DHT22;28667;50.758;6.096;2024-02-23T12:56:44;10.10;99.90
43043;DHT22;28667;50.758;6.096;2024-02-23T12:59:10;10.10;99.90
43043;DHT22;28667;50.758;6.096;2024-02-23T13:01:36;10.20;99.90
43043;DHT22;28667;50.758;6.096;2024-02-23T13:04:04;10.10;99.90
43043;DHT22;28667;50.758;6.096;2024-02-23T13:06:40;10.10;99.90
43043;DHT22;28667;50.758;6.096;2024-02-23T13:09:06;10.10;99.90
43043;DHT22;28667;50.758;6.096;2024-02-23T13:11:37;10.10;99.90
43043;DHT22;28667;50.758;6.096;2024-02-23T13:14:03;10.00;99.90
43043;DHT22;28667;50.758;6.096;2024-02-23T13:16:29;9.90;99.90
43043;DHT22;28667;50.758;6.096;2024-02-23T13:18:55;9.80;99.90
43043;DHT22;28667;50.758;6.096;2024-02-23T13:21:21;9.60;99.90
43043;DHT22;28667;50.758;6.096;2024-02-23T13:23:46;9.40;99.90
43043;DHT22;28667;50.758;6.096;2024-02-23T13:26:12;9.40;99.90
43043;DHT22;28667;50.758;6.096;2024-02-23T13:28:42;9.30;99.90
43043;DHT22;28667;50.758;6.096;2024-02-23T13:31:07;9.20;99.90
43043;DHT22;28667;50.758;6.096;2024-02-23T13:33:33;9.00;99.90
43043;DHT22;28667;50.758;6.096;2024-02-23T13:35:59;8.90;99.90
43043;DHT22;28667;50.758;6.096;2024-02-23T13:38:25;8.80;99.90
43043;DHT22;28667;50.758;6.096;2024-02-23T13:40:51;8.80;99.90
43043;DHT22;28667;50.758;6.096;2024-02-23T13:43:17;8.70;99.90
43043;DHT22;28667;50.758;6.096;2024-02-23T13:45:50;8.70;99.90
43043;DHT22;28667;50.758;6.096;2024-02-23T13:48:20;8.60;99.90
43043;DHT22;28667;50.758;6.096;2024-02-23T13:50:49;8.60;99.90
43043;DHT22;28667;50.758;6.096;2024-02-23T13:53:15;8.60;99.90
43043;DHT22;28667;50.758;6.096;2024-02-23T13:55:41;8.60;99.90
43043;DHT22;28667;50.758;6.096;2024-02-23T13:58:10;8.60;99.90
43043;DHT22;28667;50.758;6.096;2024-02-23T14:00:35;8.40;99.90
43043;DHT22;28667;50.758;6.096;2024-02-23T14:03:01;8.40;99.90
43043;DHT22;28667;50.758;6.096;2024-02-23T14:05:27;8.40;99.90
43043;DHT22;28667;50.758;6.096;2024-02-23T14:07:54;8.40;99.90
43043;DHT22;28667;50.758;6.096;2024-02-23T14:10:20;8.40;99.90
43043;DHT22;28667;50.758;6.096;2024-02-23T14:12:46;8.50;99.90
43043;DHT22;28667;50.758;6.096;2024-02-23T14:15:11;8.50;99.90
43043;DHT22;28667;50.758;6.096;2024-02-23T14:17:38;8.50;99.90
43043;DHT22;28667;50.758;6.096;2024-02-23T14:20:05;8.50;99.90
43043;DHT22;28667;50.758;6.096;2024-02-23T14:22:32;8.40;99.90
43043;DHT22;28667;50.758;6.096;2024-02-23T14:24:58;8.40;99.90
43043;DHT22;28667;50.758;6.096;2024-02-23T14:27:24;8.40;99.90
43043;DHT22;28667;50.758;6.096;2024-02-23T14:29:49;8.40;99.90
43043;DHT22;28667;50.758;6.096;2024-02-23T14:32:16;8.40;99.90
43043;DHT22;28667;50.758;6.096;2024-02-23T14:34:43;8.40;99.90
43043;DHT22;28667;50.758;6.096;2024-02-23T14:37:09;8.40;99.90
43043;DHT22;28667;50.758;6.096;2024-02-23T14:39:35;8.30;99.90
43043;DHT22;28667;50.758;6.096;2024-02-23T14:42:01;8.30;99.90
43043;DHT22;28667;50.758;6.096;2024-02-23T14:44:27;8.30;99.90
43043;DHT22;28667;50.758;6.096;2024-02-23T14:46:52;8.20;99.90
43043;DHT22;28667;50.758;6.096;2024-02-23T14:49:18;8.20;99.90
43043;DHT22;28667;50.758;6.096;2024-02-23T14:51:44;8.20;99.90
43043;DHT22;28667;50.758;6.096;2024-02-23T14:54:12;8.30;99.90
43043;DHT22;28667;50.758;6.096;2024-02-23T14:56:40;8.30;99.90
43043;DHT22;28667;50.758;6.096;2024-02-23T14:59:07;8.30;99.90
43043;DHT22;28667;50.758;6.096;2024-02-23T15:01:39;8.20;99.90
43043;DHT22;28667;50.758;6.096;2024-02-23T15:04:08;8.20;99.90
43043;DHT22;28667;50.758;6.096;2024-02-23T15:06:34;8.20;99.90
43043;DHT22;28667;50.758;6.096;2024-02-23T15:09:01;8.20;99.90
43043;DHT22;28667;50.758;6.096;2024-02-23T15:11:28;8.20;99.90
43043;DHT22;28667;50.758;6.096;2024-02-23T15:13:54;8.20;99.90
43043;DHT22;28667;50.758;6.096;2024-02-23T15:16:27;8.10;99.90
43043;DHT22;28667;50.758;6.096;2024-02-23T15:18:53;8.10;99.90
43043;DHT22;28667;50.758;6.096;2024-02-23T15:21:20;8.10;99.90
43043;DHT22;28667;50.758;6.096;2024-02-23T15:23:46;8.00;99.90
43043;DHT22;28667;50.758;6.096;2024-02-23T15:26:12;7.80;99.90
43043;DHT22;28667;50.758;6.096;2024-02-23T15:28:38;7.80;99.90
43043;DHT22;28667;50.758;6.096;2024-02-23T15:31:04;7.80;99.90
43043;DHT22;28667;50.758;6.096;2024-02-23T15:33:30;7.70;99.90
43043;DHT22;28667;50.758;6.096;2024-02-23T15:35:56;7.60;99.90
43043;DHT22;28667;50.758;6.096;2024-02-23T15:38:22;7.60;99.90
43043;DHT22;28667;50.758;6.096;2024-02-23T15:40:48;7.60;99.90
43043;DHT22;28667;50.758;6.096;2024-02-23T15:43:14;7.60;99.90
43043;DHT22;28667;50.758;6.096;2024-02-23T15:45:40;7.60;99.90
43043;DHT22;28667;50.758;6.096;2024-02-23T15:48:08;7.60;99.90
43043;DHT22;28667;50.758;6.096;2024-02-23T15:50:34;7.60;99.90
43043;DHT22;28667;50.758;6.096;2024-02-23T15:53:00;7.60;99.90
43043;DHT22;28667;50.758;6.096;2024-02-23T15:55:27;7.60;99.90
43043;DHT22;28667;50.758;6.096;2024-02-23T15:57:53;7.60;99.90
43043;DHT22;28667;50.758;6.096;2024-02-23T16:00:19;7.60;99.90
43043;DHT22;28667;50.758;6.096;2024-02-23T16:02:45;7.60;99.90
43043;DHT22;28667;50.758;6.096;2024-02-23T16:05:11;7.60;99.90
43043;DHT22;28667;50.758;6.096;2024-02-23T16:07:37;7.60;99.90
43043;DHT22;28667;50.758;6.096;2024-02-23T16:10:03;7.60;99.90
43043;DHT22;28667;50.758;6.096;2024-02-23T16:12:30;7.60;99.90
43043;DHT22;28667;50.758;6.096;2024-02-23T16:14:56;7.50;99.90
43043;DHT22;28667;50.758;6.096;2024-02-23T16:17:22;7.50;99.90
43043;DHT22;28667;50.758;6.096;2024-02-23T16:19:48;7.40;99.90
43043;DHT22;28667;50.758;6.096;2024-02-23T16:22:14;7.40;99.90
43043;DHT22;28667;50.758;6.096;2024-02-23T16:24:39;7.40;99.90
43043;DHT22;28667;50.758;6.096;2024-02-23T16:27:06;7.30;99.90
43043;DHT22;28667;50.758;6.096;2024-02-23T16:29:32;7.30;99.90
43043;DHT22;28667;50.758;6.096;2024-02-23T16:31:57;7.20;99.90